createdAt,value
2018-09-16T00:01:00.622Z,10.50
2018-09-16T00:02:04.826Z,9.90
2018-09-16T00:03:09.072Z,11.33
2018-09-16T00:04:13.422Z,10.45
2018-09-16T00:05:17.652Z,12.47
2018-09-16T00:06:21.809Z,11.15
2018-09-16T00:07:26.262Z,11.12
2018-09-16T00:08:30.502Z,10.30
2018-09-16T00:09:34.674Z,9.75
2018-09-16T00:10:38.830Z,10.25
2018-09-16T00:11:43.011Z,10.30
2018-09-16T00:12:47.187Z,10.45
2018-09-16T00:13:51.345Z,11.75
2018-09-16T00:14:55.535Z,10.75
2018-09-16T00:15:59.697Z,10.43
2018-09-16T00:17:03.879Z,12.73
2018-09-16T00:18:08.095Z,10.90
2018-09-16T00:19:12.275Z,11.12
2018-09-16T00:20:16.637Z,11.60
2018-09-16T00:21:20.825Z,10.80
2018-09-16T00:22:25.167Z,10.78
2018-09-16T00:23:29.498Z,11.73
2018-09-16T00:24:33.703Z,10.65
2018-09-16T00:25:37.871Z,10.48
2018-09-16T00:26:42.278Z,10.70
2018-09-16T00:27:46.474Z,10.08
2018-09-16T00:28:50.678Z,11.30
2018-09-16T00:29:54.846Z,9.83
2018-09-16T00:30:59.091Z,12.05
2018-09-16T00:32:08.368Z,11.43
2018-09-16T00:33:13.533Z,9.90
2018-09-16T00:34:17.667Z,10.65
2018-09-16T00:35:21.944Z,10.63
2018-09-16T00:36:26.295Z,10.50
2018-09-16T00:37:30.456Z,9.98
2018-09-16T00:38:34.786Z,10.32
2018-09-16T00:39:38.946Z,9.95
2018-09-16T00:40:43.204Z,11.55
2018-09-16T00:41:47.431Z,10.40
2018-09-16T00:42:51.688Z,9.48
2018-09-16T00:43:55.846Z,9.88
2018-09-16T00:45:00.046Z,9.80
2018-09-16T00:46:04.347Z,10.40
2018-09-16T00:47:08.547Z,9.55
2018-09-16T00:48:12.714Z,9.88
2018-09-16T00:49:16.853Z,8.90
2018-09-16T00:50:21.022Z,9.08
2018-09-16T00:51:25.226Z,9.40
2018-09-16T00:52:29.378Z,9.33
2018-09-16T00:53:33.507Z,9.58
2018-09-16T00:54:37.658Z,9.35
2018-09-16T00:55:41.905Z,9.05
2018-09-16T00:56:46.048Z,8.70
2018-09-16T00:57:50.252Z,9.65
2018-09-16T00:58:54.439Z,10.80
2018-09-16T00:59:58.691Z,10.70
2018-09-16T01:01:02.871Z,11.45
2018-09-16T01:02:07.003Z,9.38
2018-09-16T01:03:11.223Z,10.03
2018-09-16T01:04:15.382Z,10.65
2018-09-16T01:05:19.519Z,10.82
2018-09-16T01:06:28.918Z,10.28
2018-09-16T01:07:33.062Z,10.15
2018-09-16T01:08:37.282Z,10.82
2018-09-16T01:09:41.430Z,10.00
2018-09-16T01:10:45.629Z,10.60
2018-09-16T01:11:49.833Z,10.48
2018-09-16T01:12:54.061Z,10.48
2018-09-16T01:13:58.359Z,10.82
2018-09-16T01:15:02.478Z,10.70
2018-09-16T01:16:06.864Z,9.85
2018-09-16T01:17:11.270Z,10.10
2018-09-16T01:18:15.616Z,10.20
2018-09-16T01:19:19.986Z,9.80
2018-09-16T01:20:24.131Z,9.50
2018-09-16T01:21:28.380Z,9.50
2018-09-16T01:22:32.704Z,10.40
2018-09-16T01:23:36.947Z,9.80
2018-09-16T01:24:41.146Z,10.70
2018-09-16T01:25:45.318Z,10.50
2018-09-16T01:26:49.424Z,8.88
2018-09-16T01:27:53.966Z,10.13
2018-09-16T01:28:58.135Z,10.25
2018-09-16T01:30:02.442Z,9.50
2018-09-16T01:31:06.610Z,9.35
2018-09-16T01:32:10.868Z,10.03
2018-09-16T01:33:15.041Z,9.80
2018-09-16T01:34:19.203Z,9.93
2018-09-16T01:35:23.384Z,9.28
2018-09-16T01:36:27.932Z,10.50
2018-09-16T01:37:37.348Z,9.83
2018-09-16T01:38:46.878Z,9.68
2018-09-16T01:39:51.025Z,10.18
2018-09-16T01:40:55.644Z,10.53
2018-09-16T01:41:59.810Z,10.25
2018-09-16T01:43:04.009Z,9.38
2018-09-16T01:44:08.193Z,10.40
2018-09-16T01:45:12.389Z,9.70
2018-09-16T01:46:16.598Z,9.95
2018-09-16T01:47:20.778Z,9.95
2018-09-16T01:48:24.922Z,10.15
2018-09-16T01:49:29.096Z,10.23
2018-09-16T01:50:33.301Z,9.30
2018-09-16T01:51:37.454Z,9.08
2018-09-16T01:52:41.711Z,10.70
2018-09-16T01:53:45.914Z,9.40
2018-09-16T01:54:50.122Z,9.85
2018-09-16T01:55:54.266Z,9.63
2018-09-16T01:56:58.491Z,9.53
2018-09-16T01:58:02.720Z,11.45
2018-09-16T01:59:07.479Z,9.50
2018-09-16T02:00:11.718Z,8.50
2018-09-16T02:01:16.001Z,9.40
2018-09-16T02:02:20.285Z,8.65
2018-09-16T02:03:24.456Z,10.58
2018-09-16T02:04:28.872Z,9.45
2018-09-16T02:05:38.222Z,8.98
2018-09-16T02:06:42.417Z,10.35
2018-09-16T02:07:46.728Z,9.68
2018-09-16T02:08:50.873Z,8.83
2018-09-16T02:09:55.138Z,8.65
2018-09-16T02:10:59.766Z,9.15
2018-09-16T02:12:03.974Z,9.45
2018-09-16T02:13:08.265Z,8.50
2018-09-16T02:14:12.471Z,9.38
2018-09-16T02:15:17.061Z,9.00
2018-09-16T02:16:21.241Z,8.83
2018-09-16T02:17:25.411Z,9.58
2018-09-16T02:18:29.643Z,8.50
2018-09-16T02:19:33.831Z,9.73
2018-09-16T02:20:38.027Z,8.90
2018-09-16T02:21:42.202Z,9.40
2018-09-16T02:22:46.418Z,8.70
2018-09-16T02:23:50.775Z,8.63
2018-09-16T02:24:54.919Z,8.68
2018-09-16T02:25:59.138Z,8.63
2018-09-16T02:27:03.290Z,9.05
2018-09-16T02:28:07.452Z,9.45
2018-09-16T02:29:11.686Z,8.63
2018-09-16T02:30:15.875Z,9.25
2018-09-16T02:31:20.068Z,9.75
2018-09-16T02:32:24.222Z,8.98
2018-09-16T02:33:28.407Z,8.60
2018-09-16T02:34:32.718Z,9.00
2018-09-16T02:35:36.879Z,9.38
2018-09-16T02:36:41.455Z,8.65
2018-09-16T02:37:45.651Z,8.30
2018-09-16T02:38:49.819Z,8.30
2018-09-16T02:39:54.095Z,8.28
2018-09-16T02:40:58.266Z,9.45
2018-09-16T02:42:02.416Z,8.73
2018-09-16T02:43:06.561Z,8.20
2018-09-16T02:44:10.725Z,9.20
2018-09-16T02:45:15.091Z,8.80
2018-09-16T02:46:19.343Z,8.68
2018-09-16T02:47:23.746Z,8.25
2018-09-16T02:48:27.955Z,8.80
2018-09-16T02:49:32.110Z,8.15
2018-09-16T02:50:36.329Z,8.93
2018-09-16T02:51:40.715Z,8.80
2018-09-16T02:52:45.036Z,8.25
2018-09-16T02:53:49.289Z,9.83
2018-09-16T02:54:53.461Z,7.62
2018-09-16T02:55:57.697Z,8.88
2018-09-16T02:57:02.212Z,8.48
2018-09-16T02:58:06.334Z,8.43
2018-09-16T02:59:10.482Z,8.50
2018-09-16T03:00:14.833Z,8.68
2018-09-16T03:01:19.162Z,8.15
2018-09-16T03:02:23.337Z,7.40
2018-09-16T03:03:27.501Z,9.35
2018-09-16T03:04:31.749Z,8.48
2018-09-16T03:05:51.239Z,8.45
2018-09-16T03:06:55.471Z,8.38
2018-09-16T03:07:59.622Z,8.40
2018-09-16T03:09:05.250Z,8.68
2018-09-16T03:10:09.466Z,8.25
2018-09-16T03:11:13.631Z,8.65
2018-09-16T03:12:17.827Z,8.15
2018-09-16T03:13:22.085Z,8.08
2018-09-16T03:14:26.335Z,8.18
2018-09-16T03:15:30.499Z,8.23
2018-09-16T03:16:34.670Z,7.80
2018-09-16T03:17:38.899Z,8.05
2018-09-16T03:18:43.134Z,8.50
2018-09-16T03:19:47.254Z,8.20
2018-09-16T03:20:51.427Z,8.30
2018-09-16T03:21:55.643Z,8.00
2018-09-16T03:22:59.928Z,9.15
2018-09-16T03:24:04.306Z,7.75
2018-09-16T03:25:08.479Z,7.70
2018-09-16T03:26:12.782Z,7.40
2018-09-16T03:27:16.969Z,7.80
2018-09-16T03:28:21.158Z,7.40
2018-09-16T03:29:25.287Z,8.10
2018-09-16T03:30:29.607Z,8.60
2018-09-16T03:31:33.777Z,8.25
2018-09-16T03:32:38.082Z,8.15
2018-09-16T03:33:42.393Z,7.65
2018-09-16T03:34:46.563Z,7.92
2018-09-16T03:35:50.754Z,8.00
2018-09-16T03:36:55.136Z,8.35
2018-09-16T03:37:59.418Z,8.08
2018-09-16T03:39:04.003Z,8.33
2018-09-16T03:40:08.205Z,7.30
2018-09-16T03:41:12.418Z,7.80
2018-09-16T03:42:16.543Z,6.95
2018-09-16T03:43:20.724Z,8.25
2018-09-16T03:44:24.988Z,8.38
2018-09-16T03:45:29.138Z,7.83
2018-09-16T03:46:33.282Z,8.23
2018-09-16T03:47:37.670Z,8.45
2018-09-16T03:48:41.807Z,8.35
2018-09-16T03:49:46.230Z,8.05
2018-09-16T03:50:50.434Z,8.00
2018-09-16T03:51:54.555Z,8.30
2018-09-16T03:52:58.739Z,9.25
2018-09-16T03:54:02.914Z,8.10
2018-09-16T03:55:07.175Z,8.10
2018-09-16T03:56:11.358Z,8.00
2018-09-16T03:57:15.790Z,8.08
2018-09-16T03:58:19.959Z,7.55
2018-09-16T03:59:24.277Z,7.85
2018-09-16T04:00:28.573Z,8.00
2018-09-16T04:01:33.060Z,8.00
2018-09-16T04:02:37.360Z,7.55
2018-09-16T04:03:41.627Z,7.45
2018-09-16T04:04:45.774Z,7.58
2018-09-16T04:05:50.181Z,8.35
2018-09-16T04:06:54.384Z,8.28
2018-09-16T04:07:58.614Z,9.50
2018-09-16T04:09:02.872Z,7.78
2018-09-16T04:10:07.065Z,8.00
2018-09-16T04:11:11.516Z,7.53
2018-09-16T04:12:16.026Z,7.65
2018-09-16T04:13:20.346Z,7.17
2018-09-16T04:14:24.674Z,7.30
2018-09-16T04:15:28.949Z,7.78
2018-09-16T04:16:33.167Z,7.40
2018-09-16T04:17:37.358Z,7.80
2018-09-16T04:18:41.686Z,7.25
2018-09-16T04:19:46.013Z,7.70
2018-09-16T04:20:50.194Z,7.37
2018-09-16T04:21:54.424Z,7.80
2018-09-16T04:22:58.638Z,7.20
2018-09-16T04:24:02.798Z,8.50
2018-09-16T04:25:07.338Z,7.72
2018-09-16T04:26:11.494Z,7.58
2018-09-16T04:27:15.780Z,7.22
2018-09-16T04:28:20.015Z,7.80
2018-09-16T04:29:24.229Z,7.60
2018-09-16T04:30:28.379Z,7.30
2018-09-16T04:31:32.634Z,8.75
2018-09-16T04:32:37.319Z,8.35
2018-09-16T04:33:41.472Z,7.35
2018-09-16T04:34:45.665Z,7.75
2018-09-16T04:35:49.911Z,8.80
2018-09-16T04:36:54.092Z,7.67
2018-09-16T04:37:58.276Z,7.65
2018-09-16T04:39:02.453Z,7.28
2018-09-16T04:40:07.000Z,6.83
2018-09-16T04:41:11.150Z,7.87
2018-09-16T04:42:15.407Z,7.80
2018-09-16T04:43:19.597Z,7.55
2018-09-16T04:44:23.817Z,7.47
2018-09-16T04:45:27.951Z,6.92
2018-09-16T04:46:32.290Z,8.68
2018-09-16T04:47:36.418Z,7.55
2018-09-16T04:48:40.611Z,7.90
2018-09-16T04:49:45.060Z,7.55
2018-09-16T04:50:49.308Z,8.15
2018-09-16T04:51:53.458Z,7.42
2018-09-16T04:52:57.673Z,8.60
2018-09-16T04:54:01.847Z,8.25
2018-09-16T04:55:06.150Z,7.75
2018-09-16T04:56:10.483Z,7.33
2018-09-16T04:57:14.720Z,9.10
2018-09-16T04:58:18.897Z,8.15
2018-09-16T04:59:23.100Z,8.25
2018-09-16T05:00:27.251Z,7.35
2018-09-16T05:01:31.588Z,8.25
2018-09-16T05:02:35.820Z,7.50
2018-09-16T05:03:39.977Z,8.13
2018-09-16T05:04:44.229Z,7.72
2018-09-16T05:05:48.371Z,8.38
2018-09-16T05:06:53.078Z,8.85
2018-09-16T05:07:57.382Z,8.40
2018-09-16T05:09:01.681Z,7.60
2018-09-16T05:10:06.026Z,7.95
2018-09-16T05:11:10.172Z,7.58
2018-09-16T05:12:14.323Z,7.40
2018-09-16T05:13:18.494Z,8.68
2018-09-16T05:14:22.679Z,7.80
2018-09-16T05:15:26.950Z,7.40
2018-09-16T05:16:31.159Z,7.65
2018-09-16T05:17:35.329Z,7.67
2018-09-16T05:18:39.471Z,7.08
2018-09-16T05:19:43.691Z,6.78
2018-09-16T05:20:47.925Z,8.00
2018-09-16T05:21:52.095Z,7.97
2018-09-16T05:22:56.432Z,7.75
2018-09-16T05:24:00.598Z,7.75
2018-09-16T05:25:05.095Z,7.70
2018-09-16T05:26:09.310Z,7.85
2018-09-16T05:27:13.727Z,7.30
2018-09-16T05:28:17.869Z,6.95
2018-09-16T05:29:22.011Z,7.60
2018-09-16T05:30:26.204Z,6.95
2018-09-16T05:31:30.445Z,7.95
2018-09-16T05:32:34.727Z,7.20
2018-09-16T05:33:38.893Z,8.03
2018-09-16T05:34:43.078Z,6.83
2018-09-16T05:35:47.364Z,7.67
2018-09-16T05:36:51.556Z,7.05
2018-09-16T05:37:55.967Z,7.60
2018-09-16T05:39:00.191Z,7.70
2018-09-16T05:40:04.366Z,7.50
2018-09-16T05:41:08.707Z,7.03
2018-09-16T05:42:12.890Z,7.40
2018-09-16T05:43:17.190Z,7.12
2018-09-16T05:44:21.331Z,6.72
2018-09-16T05:45:25.534Z,6.55
2018-09-16T05:46:29.694Z,7.80
2018-09-16T05:47:33.882Z,7.00
2018-09-16T05:48:38.070Z,7.70
2018-09-16T05:49:42.234Z,6.75
2018-09-16T05:50:46.386Z,6.37
2018-09-16T05:51:50.600Z,6.47
2018-09-16T05:52:54.966Z,6.25
2018-09-16T05:53:59.301Z,7.00
2018-09-16T05:55:03.453Z,7.00
2018-09-16T05:56:07.636Z,6.40
2018-09-16T05:57:11.798Z,6.75
2018-09-16T05:58:16.022Z,6.35
2018-09-16T05:59:20.229Z,6.80
2018-09-16T06:00:27.716Z,6.60
2018-09-16T06:01:32.116Z,5.72
2018-09-16T06:02:36.262Z,7.20
2018-09-16T06:03:40.529Z,5.97
2018-09-16T06:04:45.076Z,6.03
2018-09-16T06:05:49.306Z,5.78
2018-09-16T06:06:53.482Z,6.05
2018-09-16T06:07:57.681Z,6.75
2018-09-16T06:09:02.064Z,6.33
2018-09-16T06:10:06.264Z,6.30
2018-09-16T06:11:10.427Z,6.90
2018-09-16T06:12:14.597Z,6.45
2018-09-16T06:13:18.831Z,6.28
2018-09-16T06:14:22.994Z,6.47
2018-09-16T06:15:27.137Z,6.25
2018-09-16T06:16:31.419Z,6.17
2018-09-16T06:17:35.705Z,6.00
2018-09-16T06:18:39.883Z,5.95
2018-09-16T06:19:44.115Z,6.70
2018-09-16T06:20:48.331Z,6.65
2018-09-16T06:21:52.561Z,6.25
2018-09-16T06:22:56.714Z,6.42
2018-09-16T06:24:00.936Z,6.22
2018-09-16T06:25:05.285Z,6.25
2018-09-16T06:26:09.843Z,6.78
2018-09-16T06:27:14.023Z,6.33
2018-09-16T06:28:18.177Z,6.10
2018-09-16T06:29:22.516Z,5.28
2018-09-16T06:30:26.729Z,6.00
2018-09-16T06:31:30.888Z,5.55
2018-09-16T06:32:35.059Z,5.50
2018-09-16T06:33:39.210Z,5.67
2018-09-16T06:34:43.405Z,6.70
2018-09-16T06:35:47.705Z,6.75
2018-09-16T06:36:51.922Z,6.30
2018-09-16T06:37:56.403Z,6.22
2018-09-16T06:39:00.546Z,5.70
2018-09-16T06:40:04.685Z,5.65
2018-09-16T06:41:08.944Z,6.40
2018-09-16T06:42:13.092Z,5.78
2018-09-16T06:43:17.380Z,6.22
2018-09-16T06:44:21.558Z,6.30
2018-09-16T06:45:25.708Z,5.30
2018-09-16T06:46:29.922Z,5.65
2018-09-16T06:47:34.182Z,6.08
2018-09-16T06:48:38.369Z,6.00
2018-09-16T06:49:42.496Z,5.30
2018-09-16T06:50:47.029Z,6.17
2018-09-16T06:51:51.220Z,6.00
2018-09-16T06:52:55.620Z,6.42
2018-09-16T06:53:59.910Z,6.35
2018-09-16T06:55:04.217Z,5.83
2018-09-16T06:56:08.427Z,5.65
2018-09-16T06:57:12.567Z,5.83
2018-09-16T06:58:16.739Z,6.95
2018-09-16T06:59:20.939Z,6.53
2018-09-16T07:01:35.530Z,6.28
2018-09-16T07:02:39.737Z,6.10
2018-09-16T07:03:43.920Z,6.00
2018-09-16T07:04:48.111Z,6.87
2018-09-16T07:05:52.475Z,6.42
2018-09-16T07:06:56.659Z,7.20
2018-09-16T07:08:00.860Z,6.00
2018-09-16T07:09:11.591Z,6.90
2018-09-16T07:10:15.756Z,6.50
2018-09-16T07:11:19.918Z,6.37
2018-09-16T07:12:24.102Z,6.67
2018-09-16T07:13:28.295Z,7.20
2018-09-16T07:14:32.490Z,6.40
2018-09-16T07:15:36.719Z,6.28
2018-09-16T07:16:40.903Z,7.55
2018-09-16T07:17:45.067Z,6.75
2018-09-16T07:18:49.427Z,6.70
2018-09-16T07:19:53.579Z,6.37
2018-09-16T07:20:57.776Z,5.78
2018-09-16T07:22:01.906Z,6.42
2018-09-16T07:23:06.133Z,6.87
2018-09-16T07:24:10.294Z,6.80
2018-09-16T07:25:14.463Z,7.00
2018-09-16T07:26:18.782Z,6.75
2018-09-16T07:27:23.065Z,6.10
2018-09-16T07:28:27.174Z,6.00
2018-09-16T07:29:31.376Z,6.60
2018-09-16T07:30:35.527Z,6.70
2018-09-16T07:31:39.658Z,7.15
2018-09-16T07:32:43.846Z,7.00
2018-09-16T07:33:48.174Z,6.92
2018-09-16T07:34:52.343Z,6.87
2018-09-16T07:35:56.478Z,6.83
2018-09-16T07:37:00.626Z,6.03
2018-09-16T07:38:05.398Z,6.50
2018-09-16T07:39:10.414Z,7.05
2018-09-16T07:40:14.634Z,7.17
2018-09-16T07:41:19.007Z,7.20
2018-09-16T07:42:23.703Z,8.43
2018-09-16T07:43:28.370Z,8.08
2018-09-16T07:44:32.558Z,6.80
2018-09-16T07:45:36.910Z,6.78
2018-09-16T07:46:41.227Z,8.05
2018-09-16T07:47:45.910Z,6.92
2018-09-16T07:48:50.118Z,7.37
2018-09-16T07:49:54.344Z,7.10
2018-09-16T07:50:59.025Z,7.00
2018-09-16T07:52:03.446Z,7.35
2018-09-16T07:53:08.125Z,7.25
2018-09-16T07:54:12.480Z,7.00
2018-09-16T07:55:16.702Z,6.12
2018-09-16T07:56:21.190Z,6.22
2018-09-16T07:57:26.148Z,7.30
2018-09-16T07:58:30.585Z,8.03
2018-09-16T07:59:34.805Z,7.40
2018-09-16T08:00:39.171Z,6.75
2018-09-16T08:01:43.963Z,6.37
2018-09-16T08:02:48.492Z,7.00
2018-09-16T08:03:52.645Z,8.30
2018-09-16T08:04:56.843Z,6.08
2018-09-16T08:06:01.493Z,6.90
2018-09-16T08:07:06.274Z,7.45
2018-09-16T08:08:10.724Z,7.35
2018-09-16T08:09:15.246Z,6.83
2018-09-16T08:10:19.902Z,7.20
2018-09-16T08:11:24.107Z,7.30
2018-09-16T08:12:28.754Z,7.15
2018-09-16T08:13:33.367Z,7.20
2018-09-16T08:14:37.774Z,7.50
2018-09-16T08:15:42.006Z,7.37
2018-09-16T08:16:46.279Z,7.78
2018-09-16T08:17:50.563Z,7.15
2018-09-16T08:18:54.977Z,6.58
2018-09-16T08:19:59.465Z,7.05
2018-09-16T08:21:03.955Z,7.10
2018-09-16T08:22:08.359Z,7.78
2018-09-16T08:23:12.547Z,6.87
2018-09-16T08:24:23.380Z,8.48
2018-09-16T08:25:27.699Z,7.10
2018-09-16T08:26:32.401Z,6.90
2018-09-16T08:27:36.618Z,8.90
2018-09-16T08:28:40.809Z,8.43
2018-09-16T08:29:45.130Z,7.30
2018-09-16T08:30:49.831Z,6.67
2018-09-16T08:31:54.311Z,6.60
2018-09-16T08:32:58.539Z,7.62
2018-09-16T08:34:02.991Z,8.65
2018-09-16T08:35:07.298Z,7.30
2018-09-16T08:36:11.850Z,7.65
2018-09-16T08:37:15.999Z,6.92
2018-09-16T08:38:20.677Z,7.35
2018-09-16T08:39:24.868Z,6.90
2018-09-16T08:40:29.398Z,7.47
2018-09-16T08:41:33.526Z,8.18
2018-09-16T08:42:37.745Z,7.10
2018-09-16T08:43:41.958Z,6.97
2018-09-16T08:44:46.155Z,6.75
2018-09-16T08:45:50.311Z,8.68
2018-09-16T08:46:54.468Z,7.15
2018-09-16T08:47:58.668Z,7.50
2018-09-16T08:49:02.883Z,6.92
2018-09-16T08:50:07.119Z,6.50
2018-09-16T08:51:11.473Z,7.10
2018-09-16T08:52:15.667Z,7.58
2018-09-16T08:53:19.958Z,7.90
2018-09-16T08:54:24.481Z,8.58
2018-09-16T08:55:28.730Z,8.40
2018-09-16T08:56:32.943Z,9.50
2018-09-16T08:57:37.102Z,8.05
2018-09-16T08:58:41.270Z,8.20
2018-09-16T08:59:45.424Z,9.15
2018-09-16T09:00:49.963Z,7.25
2018-09-16T09:01:54.123Z,7.10
2018-09-16T09:02:58.282Z,7.53
2018-09-16T09:04:02.435Z,8.35
2018-09-16T09:05:07.330Z,7.97
2018-09-16T09:06:11.496Z,7.05
2018-09-16T09:07:15.772Z,6.92
2018-09-16T09:08:20.172Z,6.60
2018-09-16T09:09:24.304Z,6.80
2018-09-16T09:10:28.498Z,7.03
2018-09-16T09:11:32.685Z,6.58
2018-09-16T09:12:36.842Z,6.22
2018-09-16T09:13:41.368Z,6.12
2018-09-16T09:14:45.519Z,6.33
2018-09-16T09:15:49.654Z,6.15
2018-09-16T09:16:53.858Z,7.30
2018-09-16T09:17:58.027Z,5.70
2018-09-16T09:19:02.240Z,6.78
2018-09-16T09:20:06.623Z,6.25
2018-09-16T09:21:10.778Z,6.10
2018-09-16T09:22:15.034Z,5.60
2018-09-16T09:23:19.654Z,6.10
2018-09-16T09:24:23.815Z,5.60
2018-09-16T09:25:27.986Z,5.72
2018-09-16T09:26:32.266Z,6.47
2018-09-16T09:27:36.454Z,5.50
2018-09-16T09:28:40.594Z,5.33
2018-09-16T09:29:44.966Z,5.65
2018-09-16T09:30:49.098Z,5.20
2018-09-16T09:31:53.240Z,5.60
2018-09-16T09:32:57.443Z,5.72
2018-09-16T09:34:01.597Z,6.92
2018-09-16T09:35:05.906Z,5.50
2018-09-16T09:36:10.115Z,4.95
2018-09-16T09:37:14.255Z,5.00
2018-09-16T09:38:24.662Z,5.33
2018-09-16T09:39:29.298Z,4.50
2018-09-16T09:40:33.447Z,4.97
2018-09-16T09:41:37.622Z,4.95
2018-09-16T09:42:41.805Z,5.08
2018-09-16T09:43:46.098Z,4.15
2018-09-16T09:44:50.330Z,4.22
2018-09-16T09:45:54.547Z,4.80
2018-09-16T09:46:58.760Z,5.00
2018-09-16T09:48:02.956Z,4.58
2018-09-16T09:49:07.359Z,4.67
2018-09-16T09:50:11.787Z,4.30
2018-09-16T09:51:16.060Z,4.30
2018-09-16T09:52:20.200Z,4.42
2018-09-16T09:53:24.401Z,4.20
2018-09-16T09:54:28.571Z,4.20
2018-09-16T09:55:32.714Z,4.92
2018-09-16T09:56:36.858Z,4.42
2018-09-16T09:57:41.268Z,4.12
2018-09-16T09:58:45.449Z,4.37
2018-09-16T09:59:49.672Z,4.10
2018-09-16T10:00:53.823Z,3.70
2018-09-16T10:01:58.010Z,3.72
2018-09-16T10:03:02.616Z,3.83
2018-09-16T10:04:06.965Z,3.72
2018-09-16T10:05:11.179Z,3.85
2018-09-16T10:06:15.360Z,3.65
2018-09-16T10:07:26.977Z,3.77
2018-09-16T10:08:31.227Z,4.12
2018-09-16T10:09:35.347Z,3.42
2018-09-16T10:10:39.612Z,4.33
2018-09-16T10:11:43.811Z,3.30
2018-09-16T10:12:48.108Z,3.87
2018-09-16T10:13:52.318Z,4.12
2018-09-16T10:14:56.483Z,3.65
2018-09-16T10:16:00.626Z,3.50
2018-09-16T10:17:04.766Z,3.67
2018-09-16T10:18:09.090Z,4.05
2018-09-16T10:19:13.264Z,3.80
2018-09-16T10:20:17.519Z,4.08
2018-09-16T10:21:21.727Z,3.72
2018-09-16T10:22:25.875Z,3.27
2018-09-16T10:23:30.083Z,2.95
2018-09-16T10:24:34.289Z,3.60
2018-09-16T10:25:38.975Z,2.90
2018-09-16T10:26:43.211Z,2.90
2018-09-16T10:27:47.333Z,3.50
2018-09-16T10:28:51.494Z,3.08
2018-09-16T10:29:55.624Z,2.65
2018-09-16T10:30:59.793Z,2.58
2018-09-16T10:32:03.954Z,2.62
2018-09-16T10:33:08.128Z,3.10
2018-09-16T10:34:12.266Z,3.52
2018-09-16T10:35:16.635Z,2.70
2018-09-16T10:36:20.766Z,3.42
2018-09-16T10:37:25.571Z,2.80
2018-09-16T10:38:29.795Z,2.40
2018-09-16T10:39:34.362Z,3.22
2018-09-16T10:40:38.527Z,2.60
2018-09-16T10:41:42.847Z,3.30
2018-09-16T10:42:47.083Z,3.15
2018-09-16T10:43:51.415Z,3.20
2018-09-16T10:44:55.627Z,2.70
2018-09-16T10:45:59.771Z,3.17
2018-09-16T10:47:03.934Z,2.65
2018-09-16T10:48:08.237Z,3.08
2018-09-16T10:49:12.446Z,2.50
2018-09-16T10:50:16.610Z,3.00
2018-09-16T10:51:20.802Z,2.92
2018-09-16T10:52:24.974Z,2.70
2018-09-16T10:53:29.650Z,3.52
2018-09-16T10:54:34.220Z,2.85
2018-09-16T10:55:38.495Z,3.15
2018-09-16T10:56:42.901Z,3.27
2018-09-16T10:57:47.028Z,2.80
2018-09-16T10:58:51.746Z,2.65
2018-09-16T10:59:56.146Z,2.72
2018-09-16T11:01:00.460Z,2.95
2018-09-16T11:02:04.638Z,3.30
2018-09-16T11:03:08.822Z,3.20
2018-09-16T11:04:13.067Z,2.83
2018-09-16T11:05:17.567Z,2.90
2018-09-16T11:06:21.718Z,2.72
2018-09-16T11:07:25.914Z,2.55
2018-09-16T11:08:30.132Z,3.30
2018-09-16T11:09:34.327Z,3.08
2018-09-16T11:10:38.768Z,3.10
2018-09-16T11:11:42.952Z,3.72
2018-09-16T11:12:47.218Z,2.77
2018-09-16T11:13:51.412Z,2.72
2018-09-16T11:14:55.648Z,3.02
2018-09-16T11:15:59.862Z,2.52
2018-09-16T11:17:04.326Z,2.60
2018-09-16T11:18:08.799Z,2.85
2018-09-16T11:19:12.949Z,3.45
2018-09-16T11:20:17.166Z,2.83
2018-09-16T11:21:21.302Z,3.37
2018-09-16T11:22:25.739Z,2.45
2018-09-16T11:23:29.954Z,2.55
2018-09-16T11:24:34.191Z,2.90
2018-09-16T11:25:38.386Z,2.30
2018-09-16T11:26:42.559Z,2.67
2018-09-16T11:27:46.756Z,2.87
2018-09-16T11:28:50.951Z,2.90
2018-09-16T11:29:57.370Z,3.17
2018-09-16T11:31:01.563Z,3.05
2018-09-16T11:32:06.277Z,2.45
2018-09-16T11:33:17.043Z,3.10
2018-09-16T11:34:21.213Z,3.05
2018-09-16T11:35:25.533Z,2.77
2018-09-16T11:36:29.653Z,2.70
2018-09-16T11:37:34.027Z,3.12
2018-09-16T11:38:38.178Z,3.00
2018-09-16T11:39:42.676Z,2.85
2018-09-16T11:40:46.968Z,2.52
2018-09-16T11:41:51.144Z,2.20
2018-09-16T11:42:55.348Z,3.08
2018-09-16T11:43:59.751Z,2.50
2018-09-16T11:45:03.982Z,2.50
2018-09-16T11:46:08.154Z,2.20
2018-09-16T11:47:12.522Z,2.15
2018-09-16T11:48:16.689Z,2.47
2018-09-16T11:49:20.870Z,2.92
2018-09-16T11:50:25.034Z,2.35
2018-09-16T11:51:29.372Z,2.90
2018-09-16T11:52:33.668Z,2.67
2018-09-16T11:53:38.162Z,2.87
2018-09-16T11:54:42.403Z,2.52
2018-09-16T11:55:46.664Z,2.33
2018-09-16T11:56:51.085Z,2.62
2018-09-16T11:57:55.381Z,2.62
2018-09-16T11:58:59.700Z,2.20
2018-09-16T12:00:03.934Z,1.92
2018-09-16T12:01:08.122Z,2.87
2018-09-16T12:02:12.365Z,2.30
2018-09-16T12:03:16.621Z,2.83
2018-09-16T12:04:20.774Z,2.15
2018-09-16T12:05:24.952Z,2.83
2018-09-16T12:06:29.111Z,3.22
2018-09-16T12:07:36.460Z,2.00
2018-09-16T12:08:40.734Z,2.30
2018-09-16T12:09:44.927Z,2.35
2018-09-16T12:10:49.101Z,2.10
2018-09-16T12:11:53.329Z,2.20
2018-09-16T12:12:57.533Z,2.08
2018-09-16T12:14:01.759Z,2.05
2018-09-16T12:15:06.107Z,2.37
2018-09-16T12:16:10.330Z,2.72
2018-09-16T12:17:14.527Z,2.10
2018-09-16T12:18:18.681Z,2.25
2018-09-16T12:19:23.381Z,2.52
2018-09-16T12:20:27.558Z,2.25
2018-09-16T12:21:31.797Z,2.52
2018-09-16T12:22:36.012Z,2.55
2018-09-16T12:23:40.320Z,2.30
2018-09-16T12:24:44.663Z,2.60
2018-09-16T12:25:48.811Z,2.80
2018-09-16T12:26:53.130Z,3.22
2018-09-16T12:27:57.314Z,2.83
2018-09-16T12:29:01.745Z,2.60
2018-09-16T12:30:06.143Z,3.00
2018-09-16T12:31:10.335Z,3.02
2018-09-16T12:32:14.511Z,2.92
2018-09-16T12:33:18.710Z,2.22
2018-09-16T12:34:22.975Z,1.98
2018-09-16T12:35:27.203Z,2.05
2018-09-16T12:36:31.700Z,3.00
2018-09-16T12:37:36.102Z,2.35
2018-09-16T12:38:40.337Z,2.50
2018-09-16T12:39:44.926Z,2.40
2018-09-16T12:40:49.201Z,2.20
2018-09-16T12:41:53.610Z,2.27
2018-09-16T12:42:57.948Z,2.45
2018-09-16T12:44:02.152Z,2.55
2018-09-16T12:45:06.593Z,2.35
2018-09-16T12:46:10.949Z,2.05
2018-09-16T12:47:15.130Z,2.40
2018-09-16T12:48:19.486Z,2.40
2018-09-16T12:49:23.670Z,2.70
2018-09-16T12:50:27.895Z,2.25
2018-09-16T12:51:32.060Z,3.20
2018-09-16T12:52:36.245Z,2.40
2018-09-16T12:53:40.433Z,1.75
2018-09-16T12:54:44.808Z,2.20
2018-09-16T12:55:48.975Z,2.40
2018-09-16T12:56:53.230Z,2.50
2018-09-16T12:57:57.371Z,2.00
2018-09-16T12:59:01.578Z,2.87
2018-09-16T13:00:05.790Z,2.35
2018-09-16T13:01:09.985Z,1.90
2018-09-16T13:02:14.215Z,2.00
2018-09-16T13:03:18.564Z,2.67
2018-09-16T13:04:22.766Z,2.42
2018-09-16T13:05:26.974Z,2.30
2018-09-16T13:06:31.254Z,2.08
2018-09-16T13:07:35.590Z,2.12
2018-09-16T13:08:39.920Z,1.90
2018-09-16T13:09:44.250Z,2.25
2018-09-16T13:10:48.440Z,2.50
2018-09-16T13:11:52.820Z,2.30
2018-09-16T13:12:57.330Z,2.08
2018-09-16T13:14:01.504Z,2.45
2018-09-16T13:15:05.800Z,2.33
2018-09-16T13:16:16.398Z,1.70
2018-09-16T13:17:20.596Z,2.02
2018-09-16T13:18:24.863Z,2.50
2018-09-16T13:19:29.231Z,2.27
2018-09-16T13:20:33.627Z,2.20
2018-09-16T13:21:37.766Z,2.40
2018-09-16T13:22:42.037Z,3.30
2018-09-16T13:23:46.398Z,2.05
2018-09-16T13:24:50.618Z,2.35
2018-09-16T13:25:54.791Z,2.50
2018-09-16T13:26:58.951Z,2.00
2018-09-16T13:28:02.147Z,2.10
2018-09-16T13:29:06.257Z,2.52
2018-09-16T13:30:10.495Z,2.43
2018-09-16T13:31:13.813Z,2.63
2018-09-16T13:32:17.766Z,2.40
2018-09-16T13:33:22.298Z,2.40
2018-09-16T13:34:26.520Z,2.47
2018-09-16T13:35:29.835Z,2.50
2018-09-16T13:36:33.763Z,2.37
2018-09-16T13:37:37.968Z,2.30
2018-09-16T13:38:42.247Z,2.50
2018-09-16T13:39:46.879Z,2.25
2018-09-16T13:40:51.065Z,2.60
2018-09-16T13:41:55.250Z,2.50
2018-09-16T13:42:59.390Z,2.13
2018-09-16T13:44:03.580Z,2.60
2018-09-16T13:45:07.799Z,2.33
2018-09-16T13:46:12.020Z,2.17
2018-09-16T13:47:16.248Z,2.22
2018-09-16T13:48:20.509Z,2.37
2018-09-16T13:49:24.744Z,2.70
2018-09-16T13:50:28.986Z,2.57
2018-09-16T13:51:33.221Z,2.10
2018-09-16T13:52:37.724Z,2.73
2018-09-16T13:53:42.195Z,2.93
2018-09-16T13:54:46.559Z,2.45
2018-09-16T13:55:51.664Z,2.40
2018-09-16T13:56:55.911Z,2.90
2018-09-16T13:58:00.091Z,2.50
2018-09-16T13:59:04.346Z,2.70
2018-09-16T14:00:08.811Z,2.20
2018-09-16T14:01:13.058Z,2.77
2018-09-16T14:02:17.238Z,3.00
2018-09-16T14:03:21.683Z,2.75
2018-09-16T14:04:26.044Z,2.40
2018-09-16T14:05:30.228Z,2.70
2018-09-16T14:06:34.410Z,2.90
2018-09-16T14:07:38.655Z,2.50
2018-09-16T14:08:42.962Z,2.60
2018-09-16T14:09:47.259Z,2.92
2018-09-16T14:10:51.681Z,2.58
2018-09-16T14:11:55.963Z,2.30
2018-09-16T14:13:00.195Z,2.17
2018-09-16T14:14:04.359Z,2.85
2018-09-16T14:15:08.551Z,2.53
2018-09-16T14:16:12.974Z,2.33